Wetterdaten: Woche 25.01.21 - 31.01.21 (KW4)
Datum Zeit Temp. Aussen Temp. o. S. Temp +5cm Feuchte Auss Luftdruck Regen Sonnenschein Regendauer Solar Windben Empfang
25.01.2021 00:00 0,5 C 0,2 C -0,5 C 93 % 998,6 hPa 0,0 l/m 0,00 h 0,00 h 0 W/m 0,3 km/h (0 Bft) 96,30 %
25.01.2021 01:00 0,7 C 0,1 C -0,5 C 93 % 998,5 hPa 0,0 l/m 0,00 h 0,07 h 0 W/m 0,2 km/h (0 Bft) 96,75 %
25.01.2021 02:00 0,5 C -0,5 C -1,1 C 94 % 998,6 hPa 0,0 l/m 0,00 h 0,33 h 0 W/m 0,3 km/h (0 Bft) 97,65 %
25.01.2021 03:00 0,4 C -0,8 C -1,2 C 95 % 998,7 hPa 0,0 l/m 0,00 h 0,03 h 0 W/m 0,0 km/h (0 Bft) 98,01 %
25.01.2021 04:00 -0,2 C -1,1 C -1,6 C 95 % 999,0 hPa 0,0 l/m 0,00 h 0,00 h 0 W/m 0,0 km/h (0 Bft) 98,86 %
25.01.2021 05:00 -0,4 C -1,1 C -1,6 C 95 % 999,4 hPa 0,0 l/m 0,00 h 0,00 h 0 W/m 0,0 km/h (0 Bft) 94,08 %
25.01.2021 06:00 -0,3 C -0,8 C -1,2 C 95 % 999,9 hPa 0,0 l/m 0,00 h 0,00 h 0 W/m 0,0 km/h (0 Bft) 99,41 %
25.01.2021 07:00 -0,0 C -0,6 C -1,1 C 96 % 1000,6 hPa 0,0 l/m 0,00 h 0,57 h 0 W/m 0,1 km/h (0 Bft) 99,01 %
25.01.2021 08:00 0,1 C -0,6 C -1,1 C 96 % 1001,7 hPa 0,0 l/m 0,00 h 0,37 h 5 W/m 0,0 km/h (0 Bft) 95,80 %
25.01.2021 09:00 0,2 C -0,4 C -0,5 C 97 % 1002,7 hPa 0,0 l/m 0,00 h 0,03 h 8 W/m 0,0 km/h (0 Bft) 94,03 %
25.01.2021 10:00 0,6 C 0,5 C 0,1 C 97 % 1003,7 hPa 0,2 l/m 0,00 h 0,00 h 46 W/m 0,0 km/h (0 Bft) 94,01 %
25.01.2021 11:00 0,6 C 2,3 C 0,2 C 97 % 1004,7 hPa 0,4 l/m 0,37 h 0,00 h 157 W/m 0,2 km/h (0 Bft) 96,44 %
25.01.2021 12:00 2,1 C 5,5 C 4,4 C 97 % 1005,6 hPa 0,6 l/m 0,93 h 0,00 h 287 W/m 2,2 km/h (1 Bft) 99,38 %
25.01.2021 13:00 2,9 C 6,1 C 5,6 C 92 % 1006,2 hPa 0,4 l/m 0,60 h 0,00 h 268 W/m 1,0 km/h (0 Bft) 97,22 %
25.01.2021 14:00 4,2 C 8,8 C 7,5 C 84 % 1006,7 hPa 0,2 l/m 1,00 h 0,00 h 322 W/m 4,0 km/h (1 Bft) 98,58 %
25.01.2021 15:00 4,4 C 7,6 C 5,3 C 82 % 1007,3 hPa 0,2 l/m 1,00 h 0,00 h 184 W/m 1,1 km/h (0 Bft) 97,58 %
25.01.2021 16:00 4,1 C 4,0 C 0,7 C 81 % 1008,3 hPa 0,0 l/m 0,47 h 0,00 h 52 W/m 0,4 km/h (0 Bft) 97,20 %
25.01.2021 17:00 2,7 C 1,4 C -0,7 C 84 % 1009,0 hPa 0,0 l/m 0,00 h 0,00 h 6 W/m 0,2 km/h (0 Bft) 97,72 %
25.01.2021 18:00 1,7 C 1,1 C -0,7 C 90 % 1009,7 hPa 0,0 l/m 0,00 h 0,00 h 0 W/m 1,1 km/h (1 Bft) 97,68 %
25.01.2021 19:00 1,5 C 1,1 C -0,5 C 92 % 1010,1 hPa 0,0 l/m 0,00 h 0,00 h 0 W/m 0,3 km/h (0 Bft) 98,60 %
25.01.2021 20:00 1,4 C 1,1 C -0,5 C 93 % 1010,5 hPa 0,0 l/m 0,00 h 0,00 h 0 W/m 1,4 km/h (1 Bft) 96,20 %
25.01.2021 21:00 1,7 C 1,1 C -0,5 C 93 % 1010,7 hPa 0,0 l/m 0,00 h 0,10 h 0 W/m 1,5 km/h (1 Bft) 95,58 %
25.01.2021 22:00 2,0 C 1,6 C -0,1 C 93 % 1010,7 hPa 0,0 l/m 0,00 h 0,03 h 0 W/m 4,6 km/h (1 Bft) 98,15 %
25.01.2021 23:00 2,3 C 1,8 C 0,5 C 93 % 1010,9 hPa 0,0 l/m 0,00 h 0,00 h 0 W/m 2,7 km/h (1 Bft) 96,54 %
26.01.2021 00:00 2,4 C 2,2 C 0,6 C 93 % 1010,9 hPa 0,0 l/m 0,00 h 0,00 h 0 W/m 4,5 km/h (1 Bft) 97,59 %
26.01.2021 01:00 2,6 C 1,8 C 0,4 C 93 % 1011,0 hPa 0,6 l/m 0,00 h 0,77 h 0 W/m 5,6 km/h (1 Bft) 99,71 %
26.01.2021 02:00 2,5 C 1,3 C 0,3 C 95 % 1011,3 hPa 1,4 l/m 0,00 h 0,87 h 0 W/m 3,8 km/h (1 Bft) 96,40 %
26.01.2021 03:00 2,6 C 1,7 C 0,8 C 96 % 1011,6 hPa 0,4 l/m 0,00 h 0,70 h 0 W/m 6,1 km/h (2 Bft) 96,30 %
26.01.2021 04:00 2,8 C 2,1 C 1,1 C 96 % 1011,9 hPa 0,0 l/m 0,00 h 0,50 h 0 W/m 12,5 km/h (3 Bft) 97,68 %
26.01.2021 05:00 2,8 C 1,9 C 1,0 C 95 % 1012,7 hPa 0,4 l/m 0,00 h 0,47 h 0 W/m 10,4 km/h (2 Bft) 95,93 %
26.01.2021 06:00 2,6 C 1,7 C 1,1 C 96 % 1013,3 hPa 0,0 l/m 0,00 h 0,40 h 0 W/m 8,8 km/h (2 Bft) 99,06 %
26.01.2021 07:00 2,8 C 1,8 C 1,2 C 96 % 1014,0 hPa 0,2 l/m 0,00 h 0,87 h 0 W/m 8,3 km/h (2 Bft) 97,61 %
26.01.2021 08:00 2,8 C 1,9 C 1,2 C 96 % 1014,7 hPa 0,2 l/m 0,00 h 0,90 h 8 W/m 8,2 km/h (2 Bft) 96,78 %
26.01.2021 09:00 2,9 C 2,2 C 1,7 C 96 % 1015,5 hPa 0,2 l/m 0,00 h 0,90 h 17 W/m 6,6 km/h (2 Bft) 96,60 %
26.01.2021 10:00 3,0 C 2,3 C 1,7 C 96 % 1016,5 hPa 0,0 l/m 0,00 h 1,00 h 48 W/m 7,7 km/h (2 Bft) 97,91 %
26.01.2021 11:00 3,1 C 2,3 C 1,7 C 96 % 1017,4 hPa 0,2 l/m 0,00 h 1,00 h 42 W/m 4,4 km/h (1 Bft) 94,96 %
26.01.2021 12:00 3,7 C 4,2 C 3,5 C 97 % 1017,6 hPa 0,0 l/m 0,33 h 0,47 h 168 W/m 2,3 km/h (1 Bft) 96,62 %
26.01.2021 13:00 4,5 C 4,7 C 3,6 C 95 % 1017,7 hPa 0,0 l/m 0,30 h 0,00 h 147 W/m 2,6 km/h (1 Bft) 96,44 %
26.01.2021 14:00 5,2 C 5,9 C 4,9 C 93 % 1017,8 hPa 0,0 l/m 0,47 h 0,00 h 150 W/m 2,8 km/h (1 Bft) 97,79 %
26.01.2021 15:00 5,1 C 4,8 C 3,4 C 91 % 1018,2 hPa 0,0 l/m 0,07 h 0,00 h 53 W/m 1,5 km/h (1 Bft) 99,29 %
26.01.2021 16:00 4,9 C 4,4 C 2,8 C 89 % 1018,6 hPa 0,0 l/m 0,10 h 0,00 h 36 W/m 0,3 km/h (0 Bft) 97,08 %
26.01.2021 17:00 4,2 C 3,4 C 1,6 C 87 % 1018,7 hPa 0,0 l/m 0,00 h 0,00 h 7 W/m 0,0 km/h (0 Bft) 96,09 %
26.01.2021 18:00 3,4 C 2,8 C 1,1 C 87 % 1018,9 hPa 0,0 l/m 0,00 h 0,00 h 0 W/m 0,2 km/h (0 Bft) 96,61 %
26.01.2021 19:00 3,0 C 2,1 C 0,4 C 89 % 1018,9 hPa 0,0 l/m 0,00 h 0,00 h 0 W/m 0,0 km/h (0 Bft) 95,71 %
26.01.2021 20:00 2,6 C 2,1 C 0,5 C 92 % 1018,8 hPa 0,0 l/m 0,00 h 0,00 h 0 W/m 0,0 km/h (0 Bft) 96,70 %
26.01.2021 21:00 2,4 C 2,0 C 0,6 C 93 % 1018,7 hPa 0,0 l/m 0,00 h 0,00 h 0 W/m 0,4 km/h (0 Bft) 98,36 %
26.01.2021 22:00 2,4 C 2,2 C 0,6 C 90 % 1018,4 hPa 0,0 l/m 0,00 h 0,00 h 0 W/m 0,8 km/h (0 Bft) 97,68 %
26.01.2021 23:00 2,4 C 1,9 C 0,3 C 87 % 1018,0 hPa 0,0 l/m 0,00 h 0,00 h 0 W/m 0,3 km/h (0 Bft) 96,77 %
27.01.2021 00:00 1,9 C 1,4 C -0,2 C 86 % 1017,7 hPa 0,0 l/m 0,00 h 0,00 h 0 W/m 0,1 km/h (0 Bft) 93,67 %
27.01.2021 01:00 1,6 C 0,9 C -0,5 C 87 % 1017,0 hPa 0,0 l/m 0,00 h 0,00 h 0 W/m 0,2 km/h (0 Bft) 96,72 %
27.01.2021 02:00 1,8 C 1,7 C -0,2 C 83 % 1016,9 hPa 0,0 l/m 0,00 h 0,00 h 0 W/m 1,4 km/h (1 Bft) 98,00 %
27.01.2021 03:00 2,3 C 1,8 C -0,4 C 84 % 1016,3 hPa 0,0 l/m 0,00 h 0,00 h 0 W/m 4,1 km/h (1 Bft) 96,70 %
27.01.2021 04:00 1,9 C 1,1 C -0,5 C 88 % 1015,1 hPa 0,0 l/m 0,00 h 0,00 h 0 W/m 1,3 km/h (1 Bft) 94,06 %
27.01.2021 05:00 1,9 C 1,6 C -0,5 C 89 % 1014,2 hPa 0,0 l/m 0,00 h 0,07 h 0 W/m 1,0 km/h (0 Bft) 96,90 %
27.01.2021 06:00 1,7 C 1,0 C -0,7 C 90 % 1013,1 hPa 0,0 l/m 0,00 h 0,03 h 0 W/m 0,8 km/h (0 Bft) 99,34 %
27.01.2021 07:00 1,2 C 0,0 C -1,4 C 93 % 1012,4 hPa 0,2 l/m 0,00 h 0,77 h 0 W/m 1,4 km/h (1 Bft) 95,49 %
27.01.2021 08:00 0,6 C -0,4 C -1,7 C 95 % 1012,1 hPa 0,2 l/m 0,00 h 0,73 h 5 W/m 0,5 km/h (0 Bft) 96,78 %
27.01.2021 09:00 0,7 C 0,2 C -1,2 C 97 % 1012,1 hPa 0,6 l/m 0,00 h 0,13 h 13 W/m 0,7 km/h (0 Bft) 97,70 %
27.01.2021 10:00 1,3 C 0,9 C -0,3 C 98 % 1011,5 hPa 0,4 l/m 0,00 h 0,23 h 32 W/m 0,5 km/h (0 Bft) 93,86 %
27.01.2021 11:00 2,0 C 1,5 C 0,4 C 98 % 1011,9 hPa 0,4 l/m 0,00 h 0,00 h 28 W/m 0,3 km/h (0 Bft) 97,85 %
27.01.2021 12:00 2,5 C 2,1 C 1,2 C 99 % 1011,6 hPa 0,4 l/m 0,00 h 0,00 h 32 W/m 1,2 km/h (1 Bft) 99,35 %
27.01.2021 13:00 3,2 C 2,7 C 2,0 C 99 % 1011,2 hPa 0,2 l/m 0,00 h 0,00 h 50 W/m 1,5 km/h (1 Bft) 94,76 %
27.01.2021 14:00 3,6 C 3,0 C 2,3 C 99 % 1011,3 hPa 0,0 l/m 0,00 h 0,00 h 25 W/m 2,6 km/h (1 Bft) 99,71 %
27.01.2021 15:00 3,9 C 3,3 C 2,8 C 99 % 1011,5 hPa 0,0 l/m 0,00 h 0,00 h 27 W/m 1,1 km/h (0 Bft) 98,37 %
27.01.2021 16:00 4,2 C 3,3 C 3,0 C 99 % 1011,7 hPa 0,0 l/m 0,00 h 0,00 h 5 W/m 1,3 km/h (1 Bft) 96,73 %
27.01.2021 17:00 4,3 C 3,9 C 3,4 C 100 % 1011,8 hPa 0,0 l/m 0,00 h 0,00 h 0 W/m 0,6 km/h (0 Bft) 97,93 %
27.01.2021 18:00 4,5 C 3,9 C 3,4 C 100 % 1012,0 hPa 0,0 l/m 0,00 h 0,13 h 0 W/m 0,2 km/h (0 Bft) 95,01 %
27.01.2021 19:00 4,7 C 4,0 C 3,8 C 100 % 1012,0 hPa 0,6 l/m 0,00 h 0,77 h 0 W/m 0,2 km/h (0 Bft) 95,31 %
27.01.2021 20:00 5,0 C 4,4 C 3,9 C 100 % 1011,9 hPa 0,0 l/m 0,00 h 0,17 h 0 W/m 0,1 km/h (0 Bft) 98,45 %
27.01.2021 21:00 5,2 C 4,4 C 4,3 C 100 % 1011,8 hPa 0,2 l/m 0,00 h 0,00 h 0 W/m 0,3 km/h (0 Bft) 96,72 %
27.01.2021 22:00 5,3 C 4,4 C 4,5 C 100 % 1011,9 hPa 0,0 l/m 0,00 h 0,00 h 0 W/m 0,6 km/h (0 Bft) 98,78 %
27.01.2021 23:00 5,3 C 4,4 C 4,5 C 100 % 1011,8 hPa 0,0 l/m 0,00 h 0,00 h 0 W/m 0,5 km/h (0 Bft) 97,63 %
28.01.2021 00:00 5,0 C 4,4 C 4,5 C 100 % 1011,6 hPa 0,0 l/m 0,00 h 0,00 h 0 W/m 0,3 km/h (0 Bft) 97,05 %
28.01.2021 01:00 5,0 C 4,4 C 4,5 C 100 % 1010,9 hPa 0,0 l/m 0,00 h 0,00 h 0 W/m 0,6 km/h (0 Bft) 99,01 %
28.01.2021 02:00 5,0 C 4,4 C 4,4 C 100 % 1010,1 hPa 0,0 l/m 0,00 h 0,00 h 0 W/m 0,1 km/h (0 Bft) 96,76 %
28.01.2021 03:00 5,0 C 4,4 C 4,5 C 100 % 1009,1 hPa 0,0 l/m 0,00 h 0,00 h 0 W/m 0,3 km/h (0 Bft) 96,82 %
28.01.2021 04:00 4,9 C 4,4 C 4,5 C 100 % 1008,1 hPa 0,0 l/m 0,00 h 0,00 h 0 W/m 0,0 km/h (0 Bft) 97,30 %
28.01.2021 05:00 4,9 C 4,4 C 3,9 C 100 % 1007,2 hPa 0,0 l/m 0,00 h 0,30 h 0 W/m 0,3 km/h (0 Bft) 95,87 %
28.01.2021 06:00 4,7 C 3,9 C 3,9 C 100 % 1005,7 hPa 1,0 l/m 0,00 h 1,00 h 0 W/m 0,3 km/h (0 Bft) 95,38 %
28.01.2021 07:00 4,5 C 3,9 C 3,9 C 100 % 1004,2 hPa 1,4 l/m 0,00 h 1,00 h 0 W/m 0,3 km/h (0 Bft) 96,59 %
28.01.2021 08:00 4,3 C 3,9 C 3,9 C 100 % 1002,9 hPa 1,6 l/m 0,00 h 1,00 h 0 W/m 0,3 km/h (0 Bft) 97,02 %
28.01.2021 09:00 4,2 C 3,6 C 3,9 C 100 % 1001,8 hPa 2,6 l/m 0,00 h 1,00 h 5 W/m 0,2 km/h (0 Bft) 96,90 %
28.01.2021 10:00 4,3 C 3,9 C 3,9 C 100 % 1000,8 hPa 2,4 l/m 0,00 h 1,00 h 13 W/m 0,0 km/h (0 Bft) 98,22 %
28.01.2021 11:00 4,4 C 4,0 C 4,0 C 100 % 1000,3 hPa 1,6 l/m 0,00 h 0,93 h 36 W/m 0,0 km/h (0 Bft) 97,40 %
28.01.2021 12:00 5,1 C 5,0 C 5,0 C 100 % 999,6 hPa 1,4 l/m 0,00 h 0,43 h 77 W/m 0,0 km/h (0 Bft) 98,16 %
28.01.2021 13:00 5,5 C 5,0 C 5,1 C 100 % 999,4 hPa 1,6 l/m 0,00 h 0,57 h 49 W/m 0,0 km/h (0 Bft) 96,21 %
28.01.2021 14:00 5,6 C 5,0 C 5,1 C 100 % 999,6 hPa 0,6 l/m 0,00 h 0,03 h 44 W/m 0,0 km/h (0 Bft) 96,71 %
28.01.2021 15:00 5,5 C 5,0 C 5,2 C 100 % 1000,1 hPa 0,2 l/m 0,00 h 0,10 h 38 W/m 0,0 km/h (0 Bft) 98,08 %
28.01.2021 16:00 5,6 C 5,0 C 5,0 C 100 % 1001,1 hPa 0,2 l/m 0,00 h 0,17 h 14 W/m 0,0 km/h (0 Bft) 98,13 %
28.01.2021 17:00 5,4 C 4,5 C 5,0 C 100 % 1002,0 hPa 0,4 l/m 0,00 h 0,23 h 0 W/m 0,0 km/h (0 Bft) 95,72 %
28.01.2021 18:00 5,2 C 4,4 C 4,8 C 100 % 1002,6 hPa 0,0 l/m 0,00 h 0,00 h 0 W/m 0,0 km/h (0 Bft) 96,94 %
28.01.2021 19:00 5,0 C 4,4 C 4,5 C 100 % 1002,9 hPa 0,2 l/m 0,00 h 0,00 h 0 W/m 0,0 km/h (0 Bft) 96,02 %
28.01.2021 20:00 5,0 C 4,4 C 4,5 C 100 % 1003,0 hPa 0,2 l/m 0,00 h 0,03 h 0 W/m 0,0 km/h (0 Bft) 93,94 %
28.01.2021 21:00 4,9 C 4,4 C 4,5 C 100 % 1002,8 hPa 0,2 l/m 0,00 h 0,07 h 0 W/m 0,0 km/h (0 Bft) 94,58 %
28.01.2021 22:00 5,0 C 4,4 C 4,5 C 100 % 1002,3 hPa 0,0 l/m 0,00 h 0,00 h 0 W/m 0,0 km/h (0 Bft) 96,93 %
28.01.2021 23:00 5,2 C 4,8 C 5,0 C 100 % 1001,8 hPa 0,2 l/m 0,00 h 0,07 h 0 W/m 0,0 km/h (0 Bft) 95,47 %
29.01.2021 00:00 5,7 C 5,1 C 5,4 C 100 % 1001,0 hPa 0,0 l/m 0,00 h 0,00 h 0 W/m 0,0 km/h (0 Bft) 96,53 %
29.01.2021 01:00 6,3 C 6,0 C 6,0 C 100 % 999,8 hPa 0,0 l/m 0,00 h 0,00 h 0 W/m 0,0 km/h (0 Bft) 97,49 %
29.01.2021 02:00 6,9 C 6,6 C 6,5 C 100 % 998,4 hPa 0,2 l/m 0,00 h 0,07 h 0 W/m 0,2 km/h (0 Bft) 96,34 %
29.01.2021 03:00 7,4 C 6,8 C 6,7 C 100 % 996,7 hPa 3,2 l/m 0,00 h 0,80 h 0 W/m 0,2 km/h (0 Bft) 98,01 %
29.01.2021 04:00 7,4 C 6,7 C 6,8 C 100 % 994,9 hPa 2,4 l/m 0,00 h 1,00 h 0 W/m 0,5 km/h (0 Bft) 97,46 %
29.01.2021 05:00 7,4 C 6,7 C 7,3 C 100 % 993,4 hPa 1,6 l/m 0,00 h 1,00 h 0 W/m 0,0 km/h (0 Bft) 97,40 %
29.01.2021 06:00 7,4 C 6,8 C 7,3 C 100 % 992,5 hPa 2,0 l/m 0,00 h 0,73 h 0 W/m 0,0 km/h (0 Bft) 98,16 %
29.01.2021 07:00 8,1 C 7,7 C 7,8 C 100 % 992,5 hPa 0,6 l/m 0,00 h 0,37 h 0 W/m 6,5 km/h (2 Bft) 98,24 %
29.01.2021 08:00 8,4 C 7,8 C 7,8 C 100 % 993,2 hPa 0,2 l/m 0,00 h 1,00 h 5 W/m 7,8 km/h (2 Bft) 97,65 %
29.01.2021 09:00 8,6 C 8,0 C 8,3 C 100 % 993,8 hPa 0,0 l/m 0,00 h 0,20 h 11 W/m 13,7 km/h (3 Bft) 98,93 %
29.01.2021 10:00 8,9 C 8,0 C 7,9 C 98 % 994,5 hPa 0,2 l/m 0,00 h 0,50 h 49 W/m 23,1 km/h (4 Bft) 97,94 %
29.01.2021 11:00 9,5 C 9,5 C 8,4 C 91 % 995,4 hPa 0,0 l/m 0,00 h 0,00 h 96 W/m 13,3 km/h (3 Bft) 97,59 %
29.01.2021 12:00 10,1 C 10,0 C 9,2 C 88 % 995,8 hPa 0,0 l/m 0,03 h 0,00 h 116 W/m 9,8 km/h (2 Bft) 99,46 %
29.01.2021 13:00 10,3 C 10,1 C 9,0 C 88 % 995,5 hPa 0,0 l/m 0,17 h 0,23 h 128 W/m 10,1 km/h (2 Bft) 96,57 %
29.01.2021 14:00 9,8 C 9,9 C 8,5 C 90 % 995,3 hPa 0,2 l/m 0,40 h 0,10 h 181 W/m 8,4 km/h (2 Bft) 94,73 %
29.01.2021 15:00 10,2 C 9,9 C 8,3 C 85 % 995,3 hPa 0,0 l/m 0,30 h 0,00 h 86 W/m 9,5 km/h (2 Bft) 99,02 %
29.01.2021 16:00 9,0 C 8,1 C 6,1 C 88 % 995,9 hPa 0,0 l/m 0,00 h 0,00 h 14 W/m 2,9 km/h (1 Bft) 98,08 %
29.01.2021 17:00 8,2 C 7,3 C 5,6 C 92 % 996,1 hPa 0,0 l/m 0,00 h 0,00 h 8 W/m 2,9 km/h (1 Bft) 97,80 %
29.01.2021 18:00 8,0 C 7,2 C 5,8 C 94 % 996,9 hPa 0,0 l/m 0,00 h 0,00 h 0 W/m 2,1 km/h (1 Bft) 95,40 %
29.01.2021 19:00 8,1 C 7,6 C 6,1 C 95 % 997,4 hPa 0,0 l/m 0,00 h 0,00 h 0 W/m 2,1 km/h (1 Bft) 95,93 %
29.01.2021 20:00 8,2 C 7,7 C 6,2 C 95 % 997,7 hPa 0,0 l/m 0,00 h 0,07 h 0 W/m 4,4 km/h (1 Bft) 98,08 %
29.01.2021 21:00 8,4 C 7,8 C 6,5 C 93 % 998,3 hPa 0,0 l/m 0,00 h 0,00 h 0 W/m 13,0 km/h (3 Bft) 96,32 %
29.01.2021 22:00 8,3 C 7,6 C 5,9 C 90 % 999,0 hPa 0,0 l/m 0,00 h 0,00 h 0 W/m 9,0 km/h (2 Bft) 98,29 %
29.01.2021 23:00 7,6 C 7,0 C 4,9 C 89 % 999,8 hPa 0,0 l/m 0,00 h 0,00 h 0 W/m 9,1 km/h (2 Bft) 98,72 %
30.01.2021 00:00 7,0 C 6,4 C 4,2 C 90 % 1000,4 hPa 0,0 l/m 0,00 h 0,00 h 0 W/m 8,1 km/h (2 Bft) 95,64 %
30.01.2021 01:00 6,2 C 5,4 C 3,6 C 92 % 1000,8 hPa 0,0 l/m 0,00 h 0,00 h 0 W/m 5,6 km/h (1 Bft) 96,52 %
30.01.2021 02:00 4,8 C 3,7 C 2,3 C 92 % 1001,3 hPa 0,0 l/m 0,00 h 0,00 h 0 W/m 2,6 km/h (1 Bft) 99,07 %
30.01.2021 03:00 3,1 C 2,3 C 0,8 C 93 % 1001,8 hPa 0,0 l/m 0,00 h 0,00 h 0 W/m 1,9 km/h (1 Bft) 96,27 %
30.01.2021 04:00 2,1 C 1,3 C -0,1 C 93 % 1002,1 hPa 0,0 l/m 0,00 h 0,00 h 0 W/m 1,3 km/h (1 Bft) 97,68 %
30.01.2021 05:00 1,3 C 0,6 C -0,5 C 94 % 1002,3 hPa 0,0 l/m 0,00 h 0,00 h 0 W/m 0,5 km/h (0 Bft) 98,26 %
30.01.2021 06:00 0,9 C 0,6 C -0,5 C 94 % 1002,3 hPa 0,0 l/m 0,00 h 0,00 h 0 W/m 0,4 km/h (0 Bft) 96,72 %
30.01.2021 07:00 0,8 C 0,6 C -0,8 C 94 % 1002,4 hPa 0,0 l/m 0,00 h 0,00 h 0 W/m 0,2 km/h (0 Bft) 96,87 %
30.01.2021 08:00 0,7 C 0,5 C -1,1 C 93 % 1002,5 hPa 0,0 l/m 0,00 h 0,00 h 9 W/m 0,4 km/h (0 Bft) 97,32 %
30.01.2021 09:00 0,7 C 0,6 C -0,8 C 91 % 1002,4 hPa 0,0 l/m 0,00 h 0,00 h 21 W/m 0,5 km/h (0 Bft) 95,07 %
30.01.2021 10:00 0,9 C 0,7 C -0,5 C 89 % 1002,4 hPa 0,0 l/m 0,00 h 0,00 h 39 W/m 0,0 km/h (0 Bft) 99,65 %
30.01.2021 11:00 1,3 C 1,4 C -0,1 C 87 % 1002,1 hPa 0,0 l/m 0,00 h 0,00 h 84 W/m 0,5 km/h (0 Bft) 97,87 %
30.01.2021 12:00 1,7 C 1,8 C 0,1 C 86 % 1001,6 hPa 0,0 l/m 0,00 h 0,00 h 72 W/m 0,3 km/h (0 Bft) 96,30 %
30.01.2021 13:00 2,3 C 2,7 C 0,8 C 85 % 1000,9 hPa 0,0 l/m 0,00 h 0,00 h 111 W/m 0,2 km/h (0 Bft) 97,32 %
30.01.2021 14:00 2,9 C 3,0 C 1,0 C 83 % 1000,4 hPa 0,0 l/m 0,00 h 0,00 h 106 W/m 0,4 km/h (0 Bft) 97,86 %
30.01.2021 15:00 3,0 C 2,8 C 0,4 C 82 % 1000,3 hPa 0,0 l/m 0,00 h 0,00 h 53 W/m 0,2 km/h (0 Bft) 97,40 %
30.01.2021 16:00 2,9 C 2,5 C -0,2 C 81 % 1000,2 hPa 0,0 l/m 0,00 h 0,00 h 21 W/m 0,7 km/h (0 Bft) 98,09 %
30.01.2021 17:00 2,6 C 1,9 C -0,5 C 83 % 1000,5 hPa 0,0 l/m 0,00 h 0,00 h 6 W/m 0,0 km/h (0 Bft) 93,53 %
30.01.2021 18:00 2,1 C 1,6 C -1,1 C 84 % 1001,2 hPa 0,0 l/m 0,00 h 0,00 h 0 W/m 0,7 km/h (0 Bft) 95,81 %
30.01.2021 19:00 1,7 C 1,1 C -1,4 C 85 % 1001,8 hPa 0,0 l/m 0,00 h 0,00 h 0 W/m 0,3 km/h (0 Bft) 99,21 %
30.01.2021 20:00 1,3 C 0,7 C -1,6 C 87 % 1002,2 hPa 0,0 l/m 0,00 h 0,00 h 0 W/m 0,2 km/h (0 Bft) 94,90 %
30.01.2021 21:00 1,0 C 0,6 C -1,6 C 88 % 1002,5 hPa 0,0 l/m 0,00 h 0,00 h 0 W/m 0,2 km/h (0 Bft) 99,00 %
30.01.2021 22:00 0,9 C 0,4 C -2,0 C 88 % 1002,7 hPa 0,0 l/m 0,00 h 0,00 h 0 W/m 0,4 km/h (0 Bft) 96,13 %
30.01.2021 23:00 0,5 C -0,3 C -2,5 C 89 % 1003,0 hPa 0,0 l/m 0,00 h 0,00 h 0 W/m 0,2 km/h (0 Bft) 92,59 %
31.01.2021 00:00 -0,1 C -1,1 C -3,3 C 90 % 1003,4 hPa 0,0 l/m 0,00 h 0,00 h 0 W/m 0,1 km/h (0 Bft) 99,45 %
31.01.2021 01:00 -0,4 C -1,1 C -3,3 C 91 % 1003,6 hPa 0,0 l/m 0,00 h 0,00 h 0 W/m 0,1 km/h (0 Bft) 98,25 %
31.01.2021 02:00 -0,7 C -1,5 C -3,4 C 91 % 1003,8 hPa 0,0 l/m 0,00 h 0,00 h 0 W/m 0,0 km/h (0 Bft) 97,01 %
31.01.2021 03:00 -1,1 C -2,0 C -3,9 C 92 % 1003,9 hPa 0,0 l/m 0,00 h 0,00 h 0 W/m 0,1 km/h (0 Bft) 99,08 %
31.01.2021 04:00 -1,6 C -2,5 C -4,4 C 92 % 1003,8 hPa 0,0 l/m 0,00 h 0,00 h 0 W/m 0,0 km/h (0 Bft) 98,28 %
31.01.2021 05:00 -2,0 C -3,0 C -4,9 C 93 % 1004,1 hPa 0,0 l/m 0,00 h 0,00 h 0 W/m 0,0 km/h (0 Bft) 94,49 %
31.01.2021 06:00 -2,5 C -3,3 C -5,0 C 93 % 1004,3 hPa 0,0 l/m 0,00 h 0,00 h 0 W/m 0,0 km/h (0 Bft) 95,02 %
31.01.2021 07:00 -2,8 C -3,6 C -5,5 C 93 % 1004,5 hPa 0,0 l/m 0,00 h 0,00 h 0 W/m 0,0 km/h (0 Bft) 98,01 %
31.01.2021 08:00 -3,1 C -3,6 C -5,4 C 94 % 1004,6 hPa 0,0 l/m 0,00 h 0,00 h 9 W/m 0,0 km/h (0 Bft) 96,04 %
31.01.2021 09:00 -2,8 C -2,8 C -4,7 C 95 % 1004,7 hPa 0,0 l/m 0,00 h 0,00 h 22 W/m 0,0 km/h (0 Bft) 97,21 %
31.01.2021 10:00 -2,0 C -0,8 C -2,8 C 95 % 1004,8 hPa 0,0 l/m 0,00 h 0,00 h 46 W/m 0,0 km/h (0 Bft) 98,72 %
31.01.2021 11:00 0,3 C 3,2 C -0,5 C 93 % 1004,3 hPa 0,0 l/m 0,40 h 0,00 h 159 W/m 1,0 km/h (0 Bft) 96,04 %
31.01.2021 12:00 3,1 C 8,5 C 7,1 C 79 % 1003,7 hPa 0,0 l/m 1,00 h 0,00 h 363 W/m 1,4 km/h (1 Bft) 98,82 %
31.01.2021 13:00 3,5 C 7,0 C 6,0 C 75 % 1002,8 hPa 0,0 l/m 1,00 h 0,00 h 315 W/m 1,4 km/h (1 Bft) 96,39 %
31.01.2021 14:00 3,4 C 6,2 C 4,5 C 75 % 1001,8 hPa 0,0 l/m 1,00 h 0,00 h 294 W/m 2,7 km/h (1 Bft) 99,36 %
31.01.2021 15:00 3,7 C 5,5 C 2,7 C 75 % 1000,8 hPa 0,0 l/m 0,70 h 0,00 h 168 W/m 1,1 km/h (0 Bft) 97,79 %
31.01.2021 16:00 3,6 C 3,0 C -0,2 C 77 % 1000,2 hPa 0,0 l/m 0,10 h 0,00 h 39 W/m 1,0 km/h (0 Bft) 98,06 %
31.01.2021 17:00 2,0 C 1,1 C -1,6 C 84 % 999,5 hPa 0,0 l/m 0,00 h 0,00 h 8 W/m 1,7 km/h (1 Bft) 97,94 %
31.01.2021 18:00 1,8 C 1,1 C -1,6 C 86 % 998,7 hPa 0,0 l/m 0,00 h 0,00 h 0 W/m 0,3 km/h (0 Bft) 97,86 %
31.01.2021 19:00 1,8 C 1,1 C -1,6 C 86 % 997,6 hPa 0,0 l/m 0,00 h 0,00 h 0 W/m 0,0 km/h (0 Bft) 98,01 %
31.01.2021 20:00 1,6 C 1,1 C -1,6 C 87 % 996,6 hPa 0,0 l/m 0,00 h 0,00 h 0 W/m 0,0 km/h (0 Bft) 97,65 %
31.01.2021 21:00 1,6 C 1,1 C -1,6 C 88 % 995,8 hPa 0,0 l/m 0,00 h 0,00 h 0 W/m 0,0 km/h (0 Bft) 93,92 %
31.01.2021 22:00 1,6 C 0,8 C -1,6 C 91 % 995,0 hPa 0,0 l/m 0,00 h 0,03 h 0 W/m 0,0 km/h (0 Bft) 99,00 %
31.01.2021 23:00 1,6 C 1,0 C -1,3 C 93 % 994,1 hPa 0,0 l/m 0,00 h 0,30 h 0 W/m 0,0 km/h (0 Bft) 99,15 %
Min-Datum _ 31.01.21 31.01.21 31.01.21 31.01.21 29.01.21 - - - - 25.01.21 27.01.21
_ Min-Zeit 08:16 07:32 06:56 13:16 06:36 - - - - 00:00 00:02
Minimum _ -3,1 C -3,9 C -5,5 C 73 % 992,3 hPa - - - - 0,0 km/h (0 Bft) 18,18 %
Max-Datum _ 29.01.21 29.01.21 29.01.21 27.01.21 26.01.21 29.01.21 25.01.21 27.01.21 31.01.21 29.01.21 25.01.21
_ Max-Zeit 15:08 14:58 14:46 17:22 18:02 03:48 16:07 07:45 12:58 12:02 01:24
Maximum _ 10,8 C 12,8 C 12,3 C 100 % 1019,0 hPa 3,2 l/m 0,08 h 0,08 h 408 W/m 70,8 km/h
SO (8 Bft)
100,00 %
Durchschnitt _ 3,3 C 3,0 C 1,9 C 93 % 1005,2 hPa #35,2 l/m #10:44 h #27:44 h 77 W/m 2,0 km/h (1 Bft) 97,12 %
© 2021 W. Hausmann